sensor_id;sensor_type;location;lat;lon;timestamp;P1;durP1;ratioP1;P2;durP2;ratioP2
64500;SDS011;50874;24.150;-110.320;2023-03-16T00:01:20;47.40;;;6.22;;
64500;SDS011;50874;24.150;-110.320;2023-03-16T00:03:46;42.15;;;4.88;;
64500;SDS011;50874;24.150;-110.320;2023-03-16T00:06:13;11.05;;;1.80;;
64500;SDS011;50874;24.150;-110.320;2023-03-16T00:08:39;18.75;;;3.10;;
64500;SDS011;50874;24.150;-110.320;2023-03-16T00:11:07;201.73;;;24.35;;
64500;SDS011;50874;24.150;-110.320;2023-03-16T00:13:33;21.15;;;2.72;;
64500;SDS011;50874;24.150;-110.320;2023-03-16T00:16:00;24.27;;;3.13;;
64500;SDS011;50874;24.150;-110.320;2023-03-16T00:18:31;13.55;;;2.88;;
64500;SDS011;50874;24.150;-110.320;2023-03-16T00:21:05;21.40;;;2.50;;
64500;SDS011;50874;24.150;-110.320;2023-03-16T00:23:32;18.40;;;2.92;;
64500;SDS011;50874;24.150;-110.320;2023-03-16T00:26:03;17.38;;;2.67;;
64500;SDS011;50874;24.150;-110.320;2023-03-16T00:28:32;19.30;;;2.53;;
64500;SDS011;50874;24.150;-110.320;2023-03-16T00:31:01;19.02;;;2.65;;
64500;SDS011;50874;24.150;-110.320;2023-03-16T00:33:29;23.00;;;3.33;;
64500;SDS011;50874;24.150;-110.320;2023-03-16T00:35:59;14.07;;;1.98;;
64500;SDS011;50874;24.150;-110.320;2023-03-16T00:38:27;26.02;;;2.67;;
64500;SDS011;50874;24.150;-110.320;2023-03-16T00:40:56;18.30;;;3.15;;
64500;SDS011;50874;24.150;-110.320;2023-03-16T00:43:22;15.02;;;2.50;;
64500;SDS011;50874;24.150;-110.320;2023-03-16T00:45:56;14.02;;;2.40;;
64500;SDS011;50874;24.150;-110.320;2023-03-16T00:48:34;29.20;;;3.03;;
64500;SDS011;50874;24.150;-110.320;2023-03-16T00:51:02;20.85;;;2.42;;
64500;SDS011;50874;24.150;-110.320;2023-03-16T00:53:33;30.92;;;4.00;;
64500;SDS011;50874;24.150;-110.320;2023-03-16T00:56:01;20.08;;;2.60;;
64500;SDS011;50874;24.150;-110.320;2023-03-16T00:58:31;29.27;;;3.50;;
64500;SDS011;50874;24.150;-110.320;2023-03-16T01:01:04;26.33;;;3.42;;
64500;SDS011;50874;24.150;-110.320;2023-03-16T01:03:32;19.80;;;2.92;;
64500;SDS011;50874;24.150;-110.320;2023-03-16T01:06:03;28.90;;;3.55;;
64500;SDS011;50874;24.150;-110.320;2023-03-16T01:08:31;26.23;;;4.25;;
64500;SDS011;50874;24.150;-110.320;2023-03-16T01:11:02;16.75;;;2.42;;
64500;SDS011;50874;24.150;-110.320;2023-03-16T01:13:29;10.88;;;2.47;;
64500;SDS011;50874;24.150;-110.320;2023-03-16T01:15:58;21.98;;;3.05;;
64500;SDS011;50874;24.150;-110.320;2023-03-16T01:18:25;21.02;;;2.55;;
64500;SDS011;50874;24.150;-110.320;2023-03-16T01:20:52;16.98;;;3.33;;
64500;SDS011;50874;24.150;-110.320;2023-03-16T01:23:19;15.50;;;2.90;;
64500;SDS011;50874;24.150;-110.320;2023-03-16T01:25:46;26.13;;;3.65;;
64500;SDS011;50874;24.150;-110.320;2023-03-16T01:28:18;25.60;;;3.05;;
64500;SDS011;50874;24.150;-110.320;2023-03-16T01:30:46;10.85;;;1.77;;
64500;SDS011;50874;24.150;-110.320;2023-03-16T01:33:12;26.95;;;4.25;;
64500;SDS011;50874;24.150;-110.320;2023-03-16T01:35:39;12.43;;;2.60;;
64500;SDS011;50874;24.150;-110.320;2023-03-16T01:38:06;17.02;;;2.53;;
64500;SDS011;50874;24.150;-110.320;2023-03-16T01:40:32;18.23;;;2.92;;
64500;SDS011;50874;24.150;-110.320;2023-03-16T01:42:59;19.67;;;2.83;;
64500;SDS011;50874;24.150;-110.320;2023-03-16T01:54:13;37.15;;;4.90;;
64500;SDS011;50874;24.150;-110.320;2023-03-16T01:56:57;23.30;;;3.22;;
64500;SDS011;50874;24.150;-110.320;2023-03-16T01:59:43;23.33;;;3.85;;
64500;SDS011;50874;24.150;-110.320;2023-03-16T02:02:14;22.02;;;3.17;;
64500;SDS011;50874;24.150;-110.320;2023-03-16T02:07:22;14.68;;;2.58;;
64500;SDS011;50874;24.150;-110.320;2023-03-16T02:09:52;11.90;;;2.55;;
64500;SDS011;50874;24.150;-110.320;2023-03-16T02:12:23;11.13;;;2.03;;
64500;SDS011;50874;24.150;-110.320;2023-03-16T02:14:50;10.02;;;2.50;;
64500;SDS011;50874;24.150;-110.320;2023-03-16T02:17:20;22.08;;;4.03;;
64500;SDS011;50874;24.150;-110.320;2023-03-16T02:22:44;19.05;;;4.10;;
64500;SDS011;50874;24.150;-110.320;2023-03-16T02:25:13;18.75;;;3.45;;
64500;SDS011;50874;24.150;-110.320;2023-03-16T02:27:54;8.65;;;2.75;;
64500;SDS011;50874;24.150;-110.320;2023-03-16T02:30:31;20.35;;;4.80;;
64500;SDS011;50874;24.150;-110.320;2023-03-16T02:32:58;28.60;;;4.78;;
64500;SDS011;50874;24.150;-110.320;2023-03-16T02:35:24;39.42;;;4.90;;
64500;SDS011;50874;24.150;-110.320;2023-03-16T02:37:51;34.38;;;4.90;;
64500;SDS011;50874;24.150;-110.320;2023-03-16T02:40:20;35.90;;;4.82;;
64500;SDS011;50874;24.150;-110.320;2023-03-16T02:42:50;43.90;;;4.95;;
64500;SDS011;50874;24.150;-110.320;2023-03-16T02:45:32;12.60;;;2.10;;
64500;SDS011;50874;24.150;-110.320;2023-03-16T02:48:10;13.38;;;2.50;;
64500;SDS011;50874;24.150;-110.320;2023-03-16T02:50:42;25.23;;;2.80;;
64500;SDS011;50874;24.150;-110.320;2023-03-16T02:53:13;31.98;;;3.28;;
64500;SDS011;50874;24.150;-110.320;2023-03-16T02:55:40;19.75;;;2.72;;
64500;SDS011;50874;24.150;-110.320;2023-03-16T02:58:07;29.30;;;3.75;;
64500;SDS011;50874;24.150;-110.320;2023-03-16T03:00:34;27.73;;;3.67;;
64500;SDS011;50874;24.150;-110.320;2023-03-16T03:03:00;39.30;;;4.85;;
64500;SDS011;50874;24.150;-110.320;2023-03-16T03:05:27;29.13;;;4.32;;
64500;SDS011;50874;24.150;-110.320;2023-03-16T03:07:54;31.75;;;4.28;;
64500;SDS011;50874;24.150;-110.320;2023-03-16T03:10:20;42.17;;;4.55;;
64500;SDS011;50874;24.150;-110.320;2023-03-16T03:12:47;21.95;;;4.18;;
64500;SDS011;50874;24.150;-110.320;2023-03-16T03:15:14;21.75;;;3.90;;
64500;SDS011;50874;24.150;-110.320;2023-03-16T03:17:42;20.58;;;4.13;;
64500;SDS011;50874;24.150;-110.320;2023-03-16T03:20:09;26.20;;;3.40;;
64500;SDS011;50874;24.150;-110.320;2023-03-16T03:22:44;14.20;;;3.63;;
64500;SDS011;50874;24.150;-110.320;2023-03-16T03:25:15;16.40;;;3.33;;
64500;SDS011;50874;24.150;-110.320;2023-03-16T03:27:43;27.38;;;4.10;;
64500;SDS011;50874;24.150;-110.320;2023-03-16T03:30:11;22.05;;;3.97;;
64500;SDS011;50874;24.150;-110.320;2023-03-16T03:32:40;9.43;;;2.83;;
64500;SDS011;50874;24.150;-110.320;2023-03-16T03:35:07;17.45;;;3.03;;
64500;SDS011;50874;24.150;-110.320;2023-03-16T03:37:36;18.15;;;2.85;;
64500;SDS011;50874;24.150;-110.320;2023-03-16T03:40:04;21.77;;;3.03;;
64500;SDS011;50874;24.150;-110.320;2023-03-16T03:42:32;16.13;;;3.70;;
64500;SDS011;50874;24.150;-110.320;2023-03-16T03:44:58;14.20;;;2.38;;
64500;SDS011;50874;24.150;-110.320;2023-03-16T03:47:25;10.45;;;2.42;;
64500;SDS011;50874;24.150;-110.320;2023-03-16T03:49:51;22.25;;;3.13;;
64500;SDS011;50874;24.150;-110.320;2023-03-16T03:52:17;23.23;;;3.10;;
64500;SDS011;50874;24.150;-110.320;2023-03-16T03:54:44;23.50;;;3.08;;
64500;SDS011;50874;24.150;-110.320;2023-03-16T03:57:10;20.85;;;3.63;;
64500;SDS011;50874;24.150;-110.320;2023-03-16T03:59:37;22.23;;;3.45;;
64500;SDS011;50874;24.150;-110.320;2023-03-16T04:02:11;19.42;;;3.55;;
64500;SDS011;50874;24.150;-110.320;2023-03-16T04:04:38;12.52;;;2.60;;
64500;SDS011;50874;24.150;-110.320;2023-03-16T04:07:06;16.13;;;3.15;;
64500;SDS011;50874;24.150;-110.320;2023-03-16T04:09:33;10.70;;;2.72;;
64500;SDS011;50874;24.150;-110.320;2023-03-16T04:12:00;14.70;;;2.92;;
64500;SDS011;50874;24.150;-110.320;2023-03-16T04:14:27;21.38;;;3.35;;
64500;SDS011;50874;24.150;-110.320;2023-03-16T04:16:54;21.92;;;3.67;;
64500;SDS011;50874;24.150;-110.320;2023-03-16T04:19:21;10.95;;;2.95;;
64500;SDS011;50874;24.150;-110.320;2023-03-16T04:21:48;19.05;;;3.00;;
64500;SDS011;50874;24.150;-110.320;2023-03-16T04:24:16;21.25;;;3.83;;
64500;SDS011;50874;24.150;-110.320;2023-03-16T04:26:43;22.83;;;3.90;;
64500;SDS011;50874;24.150;-110.320;2023-03-16T04:29:11;16.17;;;2.75;;
64500;SDS011;50874;24.150;-110.320;2023-03-16T04:31:44;23.77;;;3.03;;
64500;SDS011;50874;24.150;-110.320;2023-03-16T04:34:11;18.38;;;3.08;;
64500;SDS011;50874;24.150;-110.320;2023-03-16T04:36:37;9.23;;;2.35;;
64500;SDS011;50874;24.150;-110.320;2023-03-16T04:39:06;20.27;;;3.00;;
64500;SDS011;50874;24.150;-110.320;2023-03-16T04:41:33;19.40;;;2.15;;
64500;SDS011;50874;24.150;-110.320;2023-03-16T04:43:59;13.50;;;2.40;;
64500;SDS011;50874;24.150;-110.320;2023-03-16T04:46:26;9.93;;;2.15;;
64500;SDS011;50874;24.150;-110.320;2023-03-16T04:48:53;15.20;;;2.65;;
64500;SDS011;50874;24.150;-110.320;2023-03-16T04:51:22;13.07;;;3.15;;
64500;SDS011;50874;24.150;-110.320;2023-03-16T04:53:49;7.05;;;2.03;;
64500;SDS011;50874;24.150;-110.320;2023-03-16T04:56:16;12.85;;;2.63;;
64500;SDS011;50874;24.150;-110.320;2023-03-16T04:58:43;9.93;;;2.83;;
64500;SDS011;50874;24.150;-110.320;2023-03-16T05:01:14;13.38;;;2.90;;
64500;SDS011;50874;24.150;-110.320;2023-03-16T05:03:41;17.15;;;2.97;;
64500;SDS011;50874;24.150;-110.320;2023-03-16T05:06:09;14.35;;;2.50;;
64500;SDS011;50874;24.150;-110.320;2023-03-16T05:08:36;15.73;;;2.42;;
64500;SDS011;50874;24.150;-110.320;2023-03-16T05:11:03;14.20;;;2.33;;
64500;SDS011;50874;24.150;-110.320;2023-03-16T05:13:29;9.80;;;1.92;;
64500;SDS011;50874;24.150;-110.320;2023-03-16T05:15:56;11.55;;;2.33;;
64500;SDS011;50874;24.150;-110.320;2023-03-16T05:18:22;9.73;;;1.50;;
64500;SDS011;50874;24.150;-110.320;2023-03-16T05:20:50;12.75;;;2.15;;
64500;SDS011;50874;24.150;-110.320;2023-03-16T05:23:18;8.32;;;1.85;;
64500;SDS011;50874;24.150;-110.320;2023-03-16T05:25:45;14.80;;;2.67;;
64500;SDS011;50874;24.150;-110.320;2023-03-16T05:28:12;12.88;;;2.25;;
64500;SDS011;50874;24.150;-110.320;2023-03-16T05:30:39;12.48;;;2.50;;
64500;SDS011;50874;24.150;-110.320;2023-03-16T05:33:07;12.75;;;2.17;;
64500;SDS011;50874;24.150;-110.320;2023-03-16T05:35:34;16.20;;;3.05;;
64500;SDS011;50874;24.150;-110.320;2023-03-16T05:38:02;20.77;;;2.40;;
64500;SDS011;50874;24.150;-110.320;2023-03-16T05:40:29;13.60;;;2.45;;
64500;SDS011;50874;24.150;-110.320;2023-03-16T05:42:57;21.75;;;2.42;;
64500;SDS011;50874;24.150;-110.320;2023-03-16T05:45:24;11.07;;;2.55;;
64500;SDS011;50874;24.150;-110.320;2023-03-16T05:47:52;14.25;;;2.38;;
64500;SDS011;50874;24.150;-110.320;2023-03-16T05:50:18;11.40;;;3.20;;
64500;SDS011;50874;24.150;-110.320;2023-03-16T05:52:45;18.05;;;3.05;;
64500;SDS011;50874;24.150;-110.320;2023-03-16T05:55:13;17.05;;;2.53;;
64500;SDS011;50874;24.150;-110.320;2023-03-16T05:57:41;16.15;;;2.85;;
64500;SDS011;50874;24.150;-110.320;2023-03-16T06:00:09;9.00;;;3.03;;
64500;SDS011;50874;24.150;-110.320;2023-03-16T06:02:44;6.95;;;1.85;;
64500;SDS011;50874;24.150;-110.320;2023-03-16T06:05:12;16.02;;;2.75;;
64500;SDS011;50874;24.150;-110.320;2023-03-16T06:07:38;12.98;;;1.95;;
64500;SDS011;50874;24.150;-110.320;2023-03-16T06:10:06;9.20;;;2.20;;
64500;SDS011;50874;24.150;-110.320;2023-03-16T06:12:32;12.68;;;3.03;;
64500;SDS011;50874;24.150;-110.320;2023-03-16T06:14:59;12.43;;;2.13;;
64500;SDS011;50874;24.150;-110.320;2023-03-16T06:17:26;17.67;;;3.15;;
64500;SDS011;50874;24.150;-110.320;2023-03-16T06:19:53;15.20;;;2.40;;
64500;SDS011;50874;24.150;-110.320;2023-03-16T06:22:19;12.07;;;2.15;;
64500;SDS011;50874;24.150;-110.320;2023-03-16T06:24:46;18.52;;;3.08;;
64500;SDS011;50874;24.150;-110.320;2023-03-16T06:27:13;13.60;;;3.05;;
64500;SDS011;50874;24.150;-110.320;2023-03-16T06:29:39;10.50;;;2.72;;
64500;SDS011;50874;24.150;-110.320;2023-03-16T06:32:05;12.95;;;2.65;;
64500;SDS011;50874;24.150;-110.320;2023-03-16T06:34:32;14.82;;;2.50;;
64500;SDS011;50874;24.150;-110.320;2023-03-16T06:36:58;14.48;;;2.65;;
64500;SDS011;50874;24.150;-110.320;2023-03-16T06:39:25;11.95;;;3.22;;
64500;SDS011;50874;24.150;-110.320;2023-03-16T06:41:51;14.98;;;3.53;;
64500;SDS011;50874;24.150;-110.320;2023-03-16T06:44:18;11.18;;;3.42;;
64500;SDS011;50874;24.150;-110.320;2023-03-16T06:46:45;13.50;;;2.85;;
64500;SDS011;50874;24.150;-110.320;2023-03-16T06:49:11;14.45;;;3.05;;
64500;SDS011;50874;24.150;-110.320;2023-03-16T06:51:38;12.90;;;4.07;;
64500;SDS011;50874;24.150;-110.320;2023-03-16T06:54:04;19.17;;;3.70;;
64500;SDS011;50874;24.150;-110.320;2023-03-16T06:56:31;15.77;;;2.95;;
64500;SDS011;50874;24.150;-110.320;2023-03-16T06:58:57;11.27;;;2.80;;
64500;SDS011;50874;24.150;-110.320;2023-03-16T07:01:24;15.57;;;3.30;;
64500;SDS011;50874;24.150;-110.320;2023-03-16T07:03:51;14.45;;;3.90;;
64500;SDS011;50874;24.150;-110.320;2023-03-16T07:06:17;19.38;;;4.25;;
64500;SDS011;50874;24.150;-110.320;2023-03-16T07:08:43;13.80;;;2.90;;
64500;SDS011;50874;24.150;-110.320;2023-03-16T07:11:10;16.70;;;3.97;;
64500;SDS011;50874;24.150;-110.320;2023-03-16T07:13:37;11.38;;;2.92;;
64500;SDS011;50874;24.150;-110.320;2023-03-16T07:16:03;15.68;;;3.20;;
64500;SDS011;50874;24.150;-110.320;2023-03-16T07:18:30;17.13;;;3.30;;
64500;SDS011;50874;24.150;-110.320;2023-03-16T07:20:56;11.70;;;2.83;;
64500;SDS011;50874;24.150;-110.320;2023-03-16T07:23:23;23.63;;;3.95;;
64500;SDS011;50874;24.150;-110.320;2023-03-16T07:25:51;16.45;;;3.28;;
64500;SDS011;50874;24.150;-110.320;2023-03-16T07:28:17;11.90;;;3.13;;
64500;SDS011;50874;24.150;-110.320;2023-03-16T07:30:44;16.52;;;3.75;;
64500;SDS011;50874;24.150;-110.320;2023-03-16T07:33:11;13.52;;;2.83;;
64500;SDS011;50874;24.150;-110.320;2023-03-16T07:35:39;14.90;;;3.58;;
64500;SDS011;50874;24.150;-110.320;2023-03-16T07:38:05;10.25;;;2.75;;
64500;SDS011;50874;24.150;-110.320;2023-03-16T07:40:34;14.27;;;3.95;;
64500;SDS011;50874;24.150;-110.320;2023-03-16T07:43:01;8.38;;;2.53;;
64500;SDS011;50874;24.150;-110.320;2023-03-16T07:45:28;13.00;;;3.00;;
64500;SDS011;50874;24.150;-110.320;2023-03-16T07:47:55;12.55;;;3.05;;
64500;SDS011;50874;24.150;-110.320;2023-03-16T07:50:22;14.65;;;2.50;;
64500;SDS011;50874;24.150;-110.320;2023-03-16T07:52:49;12.73;;;2.47;;
64500;SDS011;50874;24.150;-110.320;2023-03-16T07:55:15;21.15;;;2.88;;
64500;SDS011;50874;24.150;-110.320;2023-03-16T07:57:42;7.57;;;2.53;;
64500;SDS011;50874;24.150;-110.320;2023-03-16T08:00:12;10.48;;;2.35;;
64500;SDS011;50874;24.150;-110.320;2023-03-16T08:02:39;14.52;;;2.78;;
64500;SDS011;50874;24.150;-110.320;2023-03-16T08:05:06;9.52;;;2.35;;
64500;SDS011;50874;24.150;-110.320;2023-03-16T08:07:37;17.42;;;2.90;;
64500;SDS011;50874;24.150;-110.320;2023-03-16T08:10:03;9.45;;;2.40;;
64500;SDS011;50874;24.150;-110.320;2023-03-16T08:12:30;10.35;;;2.25;;
64500;SDS011;50874;24.150;-110.320;2023-03-16T08:14:58;14.63;;;2.53;;
64500;SDS011;50874;24.150;-110.320;2023-03-16T08:17:24;12.20;;;2.55;;
64500;SDS011;50874;24.150;-110.320;2023-03-16T08:19:50;5.95;;;1.70;;
64500;SDS011;50874;24.150;-110.320;2023-03-16T08:22:17;10.52;;;2.05;;
64500;SDS011;50874;24.150;-110.320;2023-03-16T08:24:45;10.88;;;2.83;;
64500;SDS011;50874;24.150;-110.320;2023-03-16T08:27:11;11.40;;;1.98;;
64500;SDS011;50874;24.150;-110.320;2023-03-16T08:29:40;10.63;;;2.33;;
64500;SDS011;50874;24.150;-110.320;2023-03-16T08:32:06;14.45;;;2.90;;
64500;SDS011;50874;24.150;-110.320;2023-03-16T08:34:33;7.63;;;1.85;;
64500;SDS011;50874;24.150;-110.320;2023-03-16T08:37:00;14.52;;;2.50;;
64500;SDS011;50874;24.150;-110.320;2023-03-16T08:39:26;17.40;;;2.53;;
64500;SDS011;50874;24.150;-110.320;2023-03-16T08:41:53;6.78;;;2.08;;
64500;SDS011;50874;24.150;-110.320;2023-03-16T08:44:20;10.48;;;1.95;;
64500;SDS011;50874;24.150;-110.320;2023-03-16T08:46:48;12.73;;;2.05;;
64500;SDS011;50874;24.150;-110.320;2023-03-16T08:49:16;9.98;;;2.50;;
64500;SDS011;50874;24.150;-110.320;2023-03-16T08:51:45;12.77;;;2.50;;
64500;SDS011;50874;24.150;-110.320;2023-03-16T08:54:11;6.85;;;1.70;;
64500;SDS011;50874;24.150;-110.320;2023-03-16T08:56:38;4.68;;;1.65;;
64500;SDS011;50874;24.150;-110.320;2023-03-16T08:59:04;11.43;;;2.65;;
64500;SDS011;50874;24.150;-110.320;2023-03-16T09:01:31;9.40;;;2.15;;
64500;SDS011;50874;24.150;-110.320;2023-03-16T09:03:58;7.93;;;1.75;;
64500;SDS011;50874;24.150;-110.320;2023-03-16T09:06:25;9.73;;;2.50;;
64500;SDS011;50874;24.150;-110.320;2023-03-16T09:08:52;8.55;;;2.08;;
64500;SDS011;50874;24.150;-110.320;2023-03-16T09:11:20;8.32;;;2.03;;
64500;SDS011;50874;24.150;-110.320;2023-03-16T09:13:47;9.70;;;1.80;;
64500;SDS011;50874;24.150;-110.320;2023-03-16T09:16:14;5.93;;;1.88;;
64500;SDS011;50874;24.150;-110.320;2023-03-16T09:18:41;5.97;;;1.58;;
64500;SDS011;50874;24.150;-110.320;2023-03-16T09:21:08;5.32;;;1.48;;
64500;SDS011;50874;24.150;-110.320;2023-03-16T09:23:38;10.07;;;1.85;;
64500;SDS011;50874;24.150;-110.320;2023-03-16T09:26:06;6.53;;;1.85;;
64500;SDS011;50874;24.150;-110.320;2023-03-16T09:28:33;12.13;;;1.98;;
64500;SDS011;50874;24.150;-110.320;2023-03-16T09:31:03;15.57;;;2.28;;
64500;SDS011;50874;24.150;-110.320;2023-03-16T09:33:30;9.85;;;2.13;;
64500;SDS011;50874;24.150;-110.320;2023-03-16T09:35:59;11.15;;;2.17;;
64500;SDS011;50874;24.150;-110.320;2023-03-16T09:38:26;8.75;;;1.83;;
64500;SDS011;50874;24.150;-110.320;2023-03-16T09:40:56;7.05;;;2.05;;
64500;SDS011;50874;24.150;-110.320;2023-03-16T09:46:43;10.48;;;2.15;;
64500;SDS011;50874;24.150;-110.320;2023-03-16T09:49:08;10.15;;;1.58;;
64500;SDS011;50874;24.150;-110.320;2023-03-16T09:54:39;8.75;;;2.00;;
64500;SDS011;50874;24.150;-110.320;2023-03-16T09:57:16;12.02;;;1.90;;
64500;SDS011;50874;24.150;-110.320;2023-03-16T09:59:52;6.57;;;1.90;;
64500;SDS011;50874;24.150;-110.320;2023-03-16T10:13:35;6.85;;;1.60;;
64500;SDS011;50874;24.150;-110.320;2023-03-16T10:16:16;9.35;;;1.73;;
64500;SDS011;50874;24.150;-110.320;2023-03-16T10:18:45;31.27;;;3.55;;
64500;SDS011;50874;24.150;-110.320;2023-03-16T10:21:14;13.88;;;2.20;;
64500;SDS011;50874;24.150;-110.320;2023-03-16T10:23:44;10.02;;;2.45;;
64500;SDS011;50874;24.150;-110.320;2023-03-16T10:26:16;7.60;;;2.20;;
64500;SDS011;50874;24.150;-110.320;2023-03-16T10:28:50;5.57;;;1.55;;
64500;SDS011;50874;24.150;-110.320;2023-03-16T10:31:19;10.38;;;1.77;;
64500;SDS011;50874;24.150;-110.320;2023-03-16T10:33:49;7.63;;;1.65;;
64500;SDS011;50874;24.150;-110.320;2023-03-16T10:36:32;7.57;;;1.40;;
64500;SDS011;50874;24.150;-110.320;2023-03-16T10:39:02;7.47;;;1.25;;
64500;SDS011;50874;24.150;-110.320;2023-03-16T10:41:32;8.35;;;1.38;;
64500;SDS011;50874;24.150;-110.320;2023-03-16T10:44:03;3.55;;;1.27;;
64500;SDS011;50874;24.150;-110.320;2023-03-16T10:46:43;5.10;;;1.65;;
64500;SDS011;50874;24.150;-110.320;2023-03-16T10:49:24;7.65;;;1.80;;
64500;SDS011;50874;24.150;-110.320;2023-03-16T10:52:03;9.35;;;1.55;;
64500;SDS011;50874;24.150;-110.320;2023-03-16T11:00:02;7.38;;;1.65;;
64500;SDS011;50874;24.150;-110.320;2023-03-16T11:02:49;5.25;;;1.55;;
64500;SDS011;50874;24.150;-110.320;2023-03-16T11:05:28;10.43;;;2.40;;
64500;SDS011;50874;24.150;-110.320;2023-03-16T11:10:52;7.97;;;1.63;;
64500;SDS011;50874;24.150;-110.320;2023-03-16T11:13:24;6.78;;;1.38;;
64500;SDS011;50874;24.150;-110.320;2023-03-16T11:18:31;7.72;;;1.33;;
64500;SDS011;50874;24.150;-110.320;2023-03-16T11:21:55;7.22;;;1.23;;
64500;SDS011;50874;24.150;-110.320;2023-03-16T11:24:12;6.43;;;1.08;;
64500;SDS011;50874;24.150;-110.320;2023-03-16T11:26:44;5.75;;;1.27;;
64500;SDS011;50874;24.150;-110.320;2023-03-16T11:29:21;14.05;;;1.48;;
64500;SDS011;50874;24.150;-110.320;2023-03-16T11:31:56;6.57;;;0.90;;
64500;SDS011;50874;24.150;-110.320;2023-03-16T11:34:37;17.80;;;2.08;;
64500;SDS011;50874;24.150;-110.320;2023-03-16T11:40:02;6.53;;;1.75;;
64500;SDS011;50874;24.150;-110.320;2023-03-16T11:45:34;4.10;;;1.02;;
64500;SDS011;50874;24.150;-110.320;2023-03-16T11:48:31;14.80;;;2.10;;
64500;SDS011;50874;24.150;-110.320;2023-03-16T11:51:12;4.88;;;1.17;;
64500;SDS011;50874;24.150;-110.320;2023-03-16T11:54:01;6.65;;;1.25;;
64500;SDS011;50874;24.150;-110.320;2023-03-16T11:57:00;8.75;;;1.25;;
64500;SDS011;50874;24.150;-110.320;2023-03-16T12:21:27;6.82;;;2.05;;
64500;SDS011;50874;24.150;-110.320;2023-03-16T12:24:13;7.75;;;1.40;;
64500;SDS011;50874;24.150;-110.320;2023-03-16T12:26:44;16.10;;;2.85;;
64500;SDS011;50874;24.150;-110.320;2023-03-16T12:31:53;20.40;;;2.08;;
64500;SDS011;50874;24.150;-110.320;2023-03-16T12:34:31;9.70;;;2.20;;
64500;SDS011;50874;24.150;-110.320;2023-03-16T12:37:19;18.80;;;2.47;;
64500;SDS011;50874;24.150;-110.320;2023-03-16T12:40:02;23.50;;;2.45;;
64500;SDS011;50874;24.150;-110.320;2023-03-16T12:45:16;15.32;;;2.35;;
64500;SDS011;50874;24.150;-110.320;2023-03-16T12:48:02;14.05;;;2.42;;
64500;SDS011;50874;24.150;-110.320;2023-03-16T12:50:34;15.75;;;1.55;;
64500;SDS011;50874;24.150;-110.320;2023-03-16T12:53:23;8.20;;;1.58;;
64500;SDS011;50874;24.150;-110.320;2023-03-16T12:56:10;14.18;;;2.20;;
64500;SDS011;50874;24.150;-110.320;2023-03-16T12:58:45;9.07;;;1.20;;
64500;SDS011;50874;24.150;-110.320;2023-03-16T13:01:14;21.90;;;3.65;;
64500;SDS011;50874;24.150;-110.320;2023-03-16T13:03:43;13.95;;;1.92;;
64500;SDS011;50874;24.150;-110.320;2023-03-16T13:06:20;13.80;;;1.38;;
64500;SDS011;50874;24.150;-110.320;2023-03-16T13:08:50;23.55;;;2.53;;
64500;SDS011;50874;24.150;-110.320;2023-03-16T13:11:24;33.83;;;3.75;;
64500;SDS011;50874;24.150;-110.320;2023-03-16T13:16:27;32.03;;;5.25;;
64500;SDS011;50874;24.150;-110.320;2023-03-16T13:19:04;49.53;;;6.47;;
64500;SDS011;50874;24.150;-110.320;2023-03-16T13:21:47;43.00;;;5.80;;
64500;SDS011;50874;24.150;-110.320;2023-03-16T13:24:25;54.50;;;6.28;;
64500;SDS011;50874;24.150;-110.320;2023-03-16T13:27:01;64.57;;;6.50;;
64500;SDS011;50874;24.150;-110.320;2023-03-16T13:29:31;42.67;;;5.40;;
64500;SDS011;50874;24.150;-110.320;2023-03-16T13:32:01;70.60;;;8.57;;
64500;SDS011;50874;24.150;-110.320;2023-03-16T13:34:32;88.72;;;9.10;;
64500;SDS011;50874;24.150;-110.320;2023-03-16T13:37:03;92.45;;;10.05;;
64500;SDS011;50874;24.150;-110.320;2023-03-16T13:39:38;56.60;;;8.15;;
64500;SDS011;50874;24.150;-110.320;2023-03-16T13:42:16;66.05;;;6.03;;
64500;SDS011;50874;24.150;-110.320;2023-03-16T13:44:44;148.90;;;17.98;;
64500;SDS011;50874;24.150;-110.320;2023-03-16T13:47:14;95.47;;;9.25;;
64500;SDS011;50874;24.150;-110.320;2023-03-16T13:49:58;173.73;;;17.70;;
64500;SDS011;50874;24.150;-110.320;2023-03-16T13:52:29;123.63;;;13.80;;
64500;SDS011;50874;24.150;-110.320;2023-03-16T13:54:59;153.03;;;18.50;;
64500;SDS011;50874;24.150;-110.320;2023-03-16T13:57:28;178.50;;;19.92;;
64500;SDS011;50874;24.150;-110.320;2023-03-16T14:00:12;97.18;;;10.70;;
64500;SDS011;50874;24.150;-110.320;2023-03-16T14:02:45;115.57;;;12.68;;
64500;SDS011;50874;24.150;-110.320;2023-03-16T14:05:19;151.43;;;16.65;;
64500;SDS011;50874;24.150;-110.320;2023-03-16T14:07:50;128.82;;;14.43;;
64500;SDS011;50874;24.150;-110.320;2023-03-16T14:10:18;222.77;;;28.17;;
64500;SDS011;50874;24.150;-110.320;2023-03-16T14:12:56;221.02;;;22.83;;
64500;SDS011;50874;24.150;-110.320;2023-03-16T14:15:31;126.35;;;13.25;;
64500;SDS011;50874;24.150;-110.320;2023-03-16T14:18:13;60.33;;;6.43;;
64500;SDS011;50874;24.150;-110.320;2023-03-16T14:20:55;83.00;;;10.02;;
64500;SDS011;50874;24.150;-110.320;2023-03-16T14:23:34;68.05;;;9.23;;
64500;SDS011;50874;24.150;-110.320;2023-03-16T14:26:14;305.88;;;29.85;;
64500;SDS011;50874;24.150;-110.320;2023-03-16T14:28:56;93.30;;;13.13;;
64500;SDS011;50874;24.150;-110.320;2023-03-16T14:31:30;96.50;;;11.68;;
64500;SDS011;50874;24.150;-110.320;2023-03-16T14:34:00;146.65;;;16.95;;
64500;SDS011;50874;24.150;-110.320;2023-03-16T14:36:36;94.10;;;11.35;;
64500;SDS011;50874;24.150;-110.320;2023-03-16T14:39:13;92.97;;;9.95;;
64500;SDS011;50874;24.150;-110.320;2023-03-16T14:41:47;62.60;;;6.05;;
64500;SDS011;50874;24.150;-110.320;2023-03-16T14:44:19;48.92;;;7.88;;
64500;SDS011;50874;24.150;-110.320;2023-03-16T14:46:47;92.82;;;10.63;;
64500;SDS011;50874;24.150;-110.320;2023-03-16T14:51:44;104.85;;;13.43;;
64500;SDS011;50874;24.150;-110.320;2023-03-16T14:54:14;88.88;;;12.40;;
64500;SDS011;50874;24.150;-110.320;2023-03-16T15:00:03;100.57;;;13.02;;
64500;SDS011;50874;24.150;-110.320;2023-03-16T15:15:53;115.20;;;14.85;;
64500;SDS011;50874;24.150;-110.320;2023-03-16T15:18:19;103.68;;;11.88;;
64500;SDS011;50874;24.150;-110.320;2023-03-16T15:20:46;91.90;;;12.00;;
64500;SDS011;50874;24.150;-110.320;2023-03-16T15:23:15;61.28;;;7.63;;
64500;SDS011;50874;24.150;-110.320;2023-03-16T15:25:43;45.97;;;5.85;;
64500;SDS011;50874;24.150;-110.320;2023-03-16T15:28:13;36.53;;;5.22;;
64500;SDS011;50874;24.150;-110.320;2023-03-16T15:30:44;32.53;;;3.63;;
64500;SDS011;50874;24.150;-110.320;2023-03-16T15:33:12;25.98;;;3.35;;
64500;SDS011;50874;24.150;-110.320;2023-03-16T15:35:39;30.63;;;4.05;;
64500;SDS011;50874;24.150;-110.320;2023-03-16T15:38:11;31.00;;;3.92;;
64500;SDS011;50874;24.150;-110.320;2023-03-16T15:46:13;12.25;;;1.77;;
64500;SDS011;50874;24.150;-110.320;2023-03-16T15:48:39;5.55;;;1.63;;
64500;SDS011;50874;24.150;-110.320;2023-03-16T15:51:27;15.77;;;2.47;;
64500;SDS011;50874;24.150;-110.320;2023-03-16T15:53:57;24.60;;;2.85;;
64500;SDS011;50874;24.150;-110.320;2023-03-16T15:56:49;13.00;;;1.58;;
64500;SDS011;50874;24.150;-110.320;2023-03-16T15:59:15;26.65;;;2.28;;